Stones Mill, Virginia
Current Conditions -  °F | °C
As of 6:15 AM on Thursday 23 Oct 2014 (Local Time) from KMKJ Reporting Station
Overcast Overcast  
Wind Chill: 40°   Ceiling: 1600
Heat Index: 44°   Visibility: 10mi
Dew Point: 38°   Wind: 7mph
Humidity: 77%   Direction: 270°W
Pressure: 30.16"   Gusts: 18mph
Location:  36.9511°N, 81.112°W
Report Text: KMKJ 231015Z AUTO 27006G16KT 10SM OVC016 07/03 A3016 RMK AO2 T00680031
Loading
Personal Weather Stations






























Interactive Weather Map
Tropical Storm Tracking
New forecast layout! Learn more

10-Day Weather Forecast

Advertisements
Track Severe Weather on mobile